createdAt,value
2017-07-01T03:54:52.702Z,13.63
2017-07-01T03:57:20.006Z,11.73
2017-07-01T03:59:47.009Z,12.23
2017-07-01T04:02:14.087Z,13.57
2017-07-01T04:04:44.244Z,12.97
2017-07-01T04:07:11.040Z,11.10
2017-07-01T04:09:38.146Z,12.10
2017-07-01T04:12:04.946Z,16.20
2017-07-01T04:14:32.559Z,15.73
2017-07-01T04:16:59.616Z,14.10
2017-07-01T04:19:28.507Z,13.23
2017-07-01T04:21:55.870Z,15.10
2017-07-01T04:24:22.755Z,11.17
2017-07-01T04:26:50.537Z,11.43
2017-07-01T04:29:18.119Z,11.77
2017-07-01T04:31:45.317Z,11.00
2017-07-01T04:34:12.196Z,10.93
2017-07-01T04:36:39.679Z,9.70
2017-07-01T04:39:08.800Z,11.40
2017-07-01T04:41:50.547Z,13.70
2017-07-01T04:44:17.588Z,8.40
2017-07-01T04:46:44.821Z,9.00
2017-07-01T04:49:12.108Z,7.77
2017-07-01T04:51:45.132Z,7.70
2017-07-01T04:54:26.986Z,7.53
2017-07-01T04:57:09.562Z,6.13
2017-07-01T04:59:37.538Z,7.53
2017-07-01T05:02:04.353Z,10.20
2017-07-01T05:04:35.023Z,7.00
2017-07-01T05:07:08.096Z,6.70
2017-07-01T05:09:40.933Z,5.40
2017-07-01T05:12:07.988Z,6.20
2017-07-01T05:14:40.686Z,6.10
2017-07-01T05:17:07.485Z,4.50
2017-07-01T05:19:34.274Z,7.37
2017-07-01T05:22:01.942Z,3.40
2017-07-01T05:24:29.904Z,7.80
2017-07-01T05:26:57.245Z,1.70
2017-07-01T05:29:24.381Z,1.83
2017-07-01T05:31:51.434Z,1.40
2017-07-01T05:34:23.927Z,2.50
2017-07-01T05:36:51.370Z,1.40
2017-07-01T05:39:19.348Z,1.90
2017-07-01T05:42:03.744Z,2.50
2017-07-01T05:44:32.308Z,3.23
2017-07-01T05:46:59.112Z,1.40
2017-07-01T05:49:25.982Z,1.80
2017-07-01T05:51:52.777Z,1.07
2017-07-01T05:54:22.634Z,0.80
2017-07-01T05:56:49.732Z,1.47
2017-07-01T05:59:17.259Z,1.10
2017-07-01T06:01:44.313Z,1.60
2017-07-01T06:04:11.149Z,1.60
2017-07-01T06:06:38.567Z,1.97
2017-07-01T06:09:05.616Z,1.87
2017-07-01T06:11:32.448Z,2.97
2017-07-01T06:13:59.820Z,1.90
2017-07-01T06:16:36.539Z,2.47
2017-07-01T06:19:04.432Z,4.30
2017-07-01T06:21:47.553Z,1.97
2017-07-01T06:24:14.604Z,2.60
2017-07-01T06:26:59.087Z,2.73
2017-07-01T06:29:31.677Z,9.47
2017-07-01T06:32:04.417Z,2.57
2017-07-01T06:34:47.913Z,2.80
2017-07-01T06:37:14.928Z,3.17
2017-07-01T06:39:41.701Z,3.20
2017-07-01T06:42:15.654Z,2.97
2017-07-01T06:44:42.445Z,5.23
2017-07-01T06:47:11.120Z,3.87
2017-07-01T06:49:38.755Z,3.07
2017-07-01T06:52:11.684Z,3.97
2017-07-01T06:54:38.505Z,2.10
2017-07-01T06:57:06.274Z,5.07
2017-07-01T06:59:34.054Z,2.40
2017-07-01T07:02:00.896Z,3.13
2017-07-01T07:04:27.861Z,2.70
2017-07-01T07:06:54.905Z,2.87
2017-07-01T07:09:21.761Z,2.83
2017-07-01T07:11:48.541Z,3.50
2017-07-01T07:14:15.736Z,2.10
2017-07-01T07:16:42.557Z,4.80
2017-07-01T07:19:10.113Z,1.70
2017-07-01T07:21:37.784Z,1.60
2017-07-01T07:24:04.628Z,1.50
2017-07-01T07:26:31.435Z,1.70
2017-07-01T07:28:58.245Z,2.40
2017-07-01T07:31:25.107Z,1.73
2017-07-01T07:33:52.160Z,1.40
2017-07-01T07:36:18.970Z,2.40
2017-07-01T07:38:46.088Z,2.77
2017-07-01T07:41:13.614Z,3.57
2017-07-01T07:43:40.679Z,2.10
2017-07-01T07:46:08.079Z,2.53
2017-07-01T07:48:34.871Z,5.73
2017-07-01T07:51:01.635Z,5.10
2017-07-01T07:53:28.900Z,3.00
2017-07-01T07:55:56.149Z,10.80
2017-07-01T07:58:22.921Z,3.33
2017-07-01T08:00:50.129Z,3.00
2017-07-01T08:03:17.142Z,5.00
2017-07-01T08:05:44.361Z,4.80
2017-07-01T08:08:11.173Z,3.50
2017-07-01T08:10:37.989Z,3.53
2017-07-01T08:13:05.520Z,4.83
2017-07-01T08:15:32.571Z,3.97
2017-07-01T08:17:59.626Z,4.83
2017-07-01T08:20:27.294Z,4.00
2017-07-01T08:22:54.086Z,4.57
2017-07-01T08:25:20.838Z,2.77
2017-07-01T08:27:47.838Z,3.63
2017-07-01T08:30:15.625Z,7.70
2017-07-01T08:32:42.398Z,11.30
2017-07-01T08:35:09.660Z,6.13
2017-07-01T08:37:36.873Z,7.80
2017-07-01T08:40:04.418Z,12.23
2017-07-01T08:42:31.217Z,9.00
2017-07-01T08:44:59.136Z,6.90
2017-07-01T08:47:25.934Z,12.33
2017-07-01T08:49:53.467Z,7.60
2017-07-01T08:52:20.518Z,5.00
2017-07-01T08:54:47.274Z,5.20
2017-07-01T08:57:14.317Z,7.47
2017-07-01T08:59:41.207Z,6.80
2017-07-01T09:02:07.983Z,6.70
2017-07-01T09:04:34.742Z,8.90
2017-07-01T09:07:01.917Z,7.00
2017-07-01T09:09:29.433Z,6.07
2017-07-01T09:11:56.190Z,7.23
2017-07-01T09:14:23.212Z,11.03
2017-07-01T09:16:50.523Z,8.80
2017-07-01T09:19:17.681Z,7.10
2017-07-01T09:21:44.487Z,6.40
2017-07-01T09:24:11.242Z,8.10
2017-07-01T09:26:38.536Z,10.20
2017-07-01T09:29:05.528Z,8.07
2017-07-01T09:31:32.983Z,11.23
2017-07-01T09:33:59.737Z,8.73
2017-07-01T09:36:26.865Z,12.23
2017-07-01T09:38:53.915Z,7.70
2017-07-01T09:41:21.577Z,10.63
2017-07-01T09:43:48.633Z,6.93
2017-07-01T09:46:15.398Z,7.57
2017-07-01T09:48:42.182Z,11.40
2017-07-01T09:51:08.979Z,11.43
2017-07-01T09:53:35.922Z,8.90
2017-07-01T09:56:02.979Z,5.97
2017-07-01T09:58:30.150Z,7.30
2017-07-01T10:00:57.391Z,8.93
2017-07-01T10:03:24.443Z,7.27
2017-07-01T10:05:51.285Z,10.43
2017-07-01T10:08:19.042Z,6.80
2017-07-01T10:10:45.828Z,9.00
2017-07-01T10:13:12.690Z,11.63
2017-07-01T10:15:40.198Z,13.17
2017-07-01T10:18:07.009Z,7.30
2017-07-01T10:20:33.949Z,7.13
2017-07-01T10:23:00.721Z,8.17
2017-07-01T10:25:27.517Z,9.83
2017-07-01T10:27:54.931Z,5.80
2017-07-01T10:30:22.032Z,8.47
2017-07-01T10:32:49.695Z,7.70
2017-07-01T10:35:16.573Z,6.70
2017-07-01T10:37:43.629Z,10.13
2017-07-01T10:40:10.854Z,11.73
2017-07-01T10:42:37.916Z,9.50
2017-07-01T10:45:04.963Z,8.30
2017-07-01T10:47:32.022Z,7.47
2017-07-01T10:49:58.896Z,6.50
2017-07-01T10:52:26.730Z,10.87
2017-07-01T10:54:53.876Z,7.33
2017-07-01T10:57:21.146Z,10.70
2017-07-01T10:59:47.910Z,12.57
2017-07-01T11:02:14.950Z,7.73
2017-07-01T11:04:42.191Z,8.07
2017-07-01T11:07:09.195Z,7.20
2017-07-01T11:09:36.414Z,9.47
2017-07-01T11:12:03.297Z,12.83
2017-07-01T11:14:30.377Z,9.83
2017-07-01T11:16:57.405Z,6.20
2017-07-01T11:19:24.783Z,10.17
2017-07-01T11:21:52.164Z,7.73
2017-07-01T11:24:19.307Z,8.20
2017-07-01T11:26:46.129Z,9.03
2017-07-01T11:29:12.973Z,14.10
2017-07-01T11:31:40.308Z,6.17
2017-07-01T11:34:07.109Z,6.37
2017-07-01T11:36:33.993Z,6.50
2017-07-01T11:39:00.769Z,6.43
2017-07-01T11:41:27.794Z,6.87
2017-07-01T11:43:55.019Z,4.70
2017-07-01T11:46:22.207Z,6.83
2017-07-01T11:48:49.089Z,6.63
2017-07-01T11:51:15.861Z,11.97
2017-07-01T11:53:43.068Z,6.47
2017-07-01T11:56:10.579Z,6.07
2017-07-01T11:58:37.973Z,8.40
2017-07-01T12:01:04.762Z,6.70
2017-07-01T12:03:31.929Z,7.27
2017-07-01T12:05:58.940Z,6.20
2017-07-01T12:08:26.643Z,6.27
2017-07-01T12:10:54.239Z,5.60
2017-07-01T12:13:21.326Z,7.13
2017-07-01T12:15:48.098Z,6.57
2017-07-01T12:18:14.957Z,5.47
2017-07-01T12:20:42.324Z,5.87
2017-07-01T12:23:09.098Z,6.23
2017-07-01T12:25:35.897Z,10.10
2017-07-01T12:28:03.159Z,7.70
2017-07-01T12:30:30.391Z,7.27
2017-07-01T12:32:58.180Z,7.67
2017-07-01T12:35:24.942Z,5.70
2017-07-01T12:37:52.165Z,9.73
2017-07-01T12:40:19.227Z,6.20
2017-07-01T12:42:46.013Z,5.00
2017-07-01T12:45:12.840Z,6.30
2017-07-01T12:47:39.655Z,15.43
2017-07-01T12:50:06.509Z,9.33
2017-07-01T12:52:34.174Z,7.20
2017-07-01T12:55:01.447Z,11.53
2017-07-01T12:57:28.589Z,39.77
2017-07-01T12:59:55.346Z,9.20
2017-07-01T13:02:22.142Z,7.43
2017-07-01T13:04:48.958Z,6.83
2017-07-01T13:07:16.190Z,5.60
2017-07-01T13:09:44.351Z,8.50
2017-07-01T13:12:11.870Z,5.00
2017-07-01T13:14:38.653Z,5.13
2017-07-01T13:17:05.933Z,4.90
2017-07-01T13:19:33.069Z,8.70
2017-07-01T13:21:59.845Z,6.37
2017-07-01T13:24:26.658Z,7.97
2017-07-01T13:26:54.079Z,4.67
2017-07-01T13:29:20.870Z,5.30
2017-07-01T13:31:48.398Z,5.10
2017-07-01T13:34:15.765Z,5.20
2017-07-01T13:36:42.537Z,4.77
2017-07-01T13:39:09.549Z,10.50
2017-07-01T13:41:36.748Z,4.33
2017-07-01T13:44:03.514Z,6.00
2017-07-01T13:46:30.763Z,4.87
2017-07-01T13:48:58.003Z,5.03
2017-07-01T13:51:24.783Z,5.80
2017-07-01T13:53:51.592Z,6.80
2017-07-01T13:56:18.783Z,4.67
2017-07-01T13:58:45.837Z,4.50
2017-07-01T14:01:13.200Z,5.97
2017-07-01T14:03:40.082Z,6.90
2017-07-01T14:06:07.303Z,9.93
2017-07-01T14:08:34.098Z,4.40
2017-07-01T14:11:00.874Z,5.20
2017-07-01T14:13:27.673Z,5.07
2017-07-01T14:15:54.901Z,6.40
2017-07-01T14:18:21.680Z,4.60
2017-07-01T14:20:49.056Z,8.83
2017-07-01T14:23:15.858Z,4.77
2017-07-01T14:25:43.963Z,8.70
2017-07-01T14:28:11.087Z,14.60
2017-07-01T14:30:37.897Z,6.53
2017-07-01T14:33:05.195Z,7.33
2017-07-01T14:35:32.324Z,7.73
2017-07-01T14:37:59.870Z,13.83
2017-07-01T14:40:26.793Z,4.77
2017-07-01T14:42:53.555Z,4.57
2017-07-01T14:45:20.765Z,6.30
2017-07-01T14:47:47.819Z,4.87
2017-07-01T14:50:14.872Z,7.37
2017-07-01T14:52:41.669Z,6.43
2017-07-01T14:55:08.432Z,6.47
2017-07-01T14:57:35.249Z,8.03
2017-07-01T15:00:02.473Z,4.47
2017-07-01T15:02:29.522Z,7.37
2017-07-01T15:04:56.282Z,4.47
2017-07-01T15:07:23.095Z,4.57
2017-07-01T15:09:49.855Z,5.00
2017-07-01T15:12:16.811Z,5.40
2017-07-01T15:14:43.723Z,5.27
2017-07-01T15:17:10.921Z,7.97
2017-07-01T15:19:37.694Z,6.07
2017-07-01T15:22:04.506Z,6.73
2017-07-01T15:24:31.271Z,5.30
2017-07-01T15:26:58.335Z,4.80
2017-07-01T15:29:25.133Z,4.53
2017-07-01T15:31:52.403Z,7.90
2017-07-01T15:34:19.985Z,7.90
2017-07-01T15:36:47.217Z,4.40
2017-07-01T15:39:13.994Z,5.67
2017-07-01T15:41:41.147Z,6.80
2017-07-01T15:44:07.957Z,6.40
2017-07-01T15:46:34.717Z,10.53
2017-07-01T15:49:02.237Z,7.60
2017-07-01T15:51:29.663Z,8.67
2017-07-01T15:53:56.716Z,7.53
2017-07-01T15:56:23.959Z,8.33
2017-07-01T15:58:50.802Z,9.00
2017-07-01T16:01:23.709Z,12.97
2017-07-01T16:03:50.502Z,9.03
2017-07-01T16:06:17.259Z,7.40
2017-07-01T16:08:45.118Z,9.63
2017-07-01T16:11:12.067Z,9.40
2017-07-01T16:13:39.809Z,6.93
2017-07-01T16:16:06.773Z,6.40
2017-07-01T16:18:34.271Z,7.30
2017-07-01T16:21:01.042Z,5.93
2017-07-01T16:23:27.805Z,5.40
2017-07-01T16:25:54.854Z,6.90
2017-07-01T16:28:21.618Z,6.00
2017-07-01T16:30:48.491Z,8.70
2017-07-01T16:33:15.614Z,5.87
2017-07-01T16:35:42.758Z,11.23
2017-07-01T16:38:09.736Z,5.43
2017-07-01T16:40:37.074Z,6.93
2017-07-01T16:43:04.462Z,6.50
2017-07-01T16:45:31.935Z,6.73
2017-07-01T16:47:58.750Z,7.50
2017-07-01T16:50:25.794Z,8.60
2017-07-01T16:52:52.847Z,5.53
2017-07-01T16:55:19.899Z,7.40
2017-07-01T16:57:47.441Z,7.40
2017-07-01T17:00:14.236Z,6.67
2017-07-01T17:02:41.365Z,10.10
2017-07-01T17:05:08.419Z,6.40
2017-07-01T17:07:36.124Z,5.30
2017-07-01T17:10:04.674Z,7.57
2017-07-01T17:12:31.727Z,6.67
2017-07-01T17:14:58.483Z,5.77
2017-07-01T17:17:25.529Z,5.83
2017-07-01T17:19:52.583Z,6.17
2017-07-01T17:22:20.099Z,7.43
2017-07-01T17:24:47.130Z,5.40
2017-07-01T17:27:14.578Z,7.00
2017-07-01T17:29:41.895Z,9.33
2017-07-01T17:32:08.896Z,11.30
2017-07-01T17:34:36.006Z,8.60
2017-07-01T17:37:03.181Z,8.90
2017-07-01T17:39:30.704Z,5.77
2017-07-01T17:41:57.808Z,7.13
2017-07-01T17:44:25.242Z,9.13
2017-07-01T17:46:52.312Z,9.23
2017-07-01T17:49:19.369Z,6.40
2017-07-01T17:51:46.154Z,7.67
2017-07-01T17:54:12.962Z,11.10
2017-07-01T17:56:40.217Z,6.20
2017-07-01T17:59:07.102Z,5.90
2017-07-01T18:01:33.933Z,6.27
2017-07-01T18:04:01.688Z,10.33
2017-07-01T18:06:28.462Z,8.00
2017-07-01T18:08:55.258Z,6.57
2017-07-01T18:11:22.226Z,5.43
2017-07-01T18:13:48.990Z,7.83
2017-07-01T18:16:16.223Z,12.23
2017-07-01T18:18:43.968Z,7.87
2017-07-01T18:21:11.400Z,8.57
2017-07-01T18:23:38.197Z,6.00
2017-07-01T18:26:04.969Z,9.57
2017-07-01T18:28:31.905Z,7.80
2017-07-01T18:30:58.711Z,6.60
2017-07-01T18:33:25.553Z,7.73
2017-07-01T18:35:52.322Z,9.77
2017-07-01T18:38:19.814Z,8.60
2017-07-01T18:40:46.865Z,6.27
2017-07-01T18:43:13.618Z,7.30
2017-07-01T18:45:40.410Z,5.33
2017-07-01T18:48:07.177Z,7.80
2017-07-01T18:50:33.988Z,10.23
2017-07-01T18:53:01.626Z,6.33
2017-07-01T18:55:28.705Z,7.60
2017-07-01T18:57:55.930Z,6.13
2017-07-01T19:00:22.756Z,6.10
2017-07-01T19:02:49.532Z,7.63
2017-07-01T19:05:16.614Z,11.30
2017-07-01T19:07:43.450Z,6.70
2017-07-01T19:10:10.232Z,7.40
2017-07-01T19:12:37.161Z,8.00
2017-07-01T19:15:04.619Z,6.70
2017-07-01T19:17:31.741Z,7.47
2017-07-01T19:19:58.524Z,6.93
2017-07-01T19:22:26.264Z,6.77
2017-07-01T19:24:54.020Z,9.87
2017-07-01T19:27:20.805Z,4.90
2017-07-01T19:29:47.757Z,6.80
2017-07-01T19:32:15.493Z,8.17
2017-07-01T19:34:42.481Z,9.20
2017-07-01T19:37:09.701Z,8.83
2017-07-01T19:39:36.477Z,13.47
2017-07-01T19:42:03.999Z,8.30
2017-07-01T19:44:30.794Z,9.23
2017-07-01T19:46:57.569Z,8.03
2017-07-01T19:49:24.584Z,10.73
2017-07-01T19:51:51.441Z,19.67
2017-07-01T19:54:18.207Z,9.17
2017-07-01T19:56:45.305Z,8.63
2017-07-01T19:59:12.558Z,8.83
2017-07-01T20:01:39.412Z,7.30
2017-07-01T20:04:07.987Z,9.60
2017-07-01T20:06:34.881Z,13.03
2017-07-01T20:09:01.637Z,9.33
2017-07-01T20:11:28.762Z,10.60
2017-07-01T20:13:55.931Z,11.57
2017-07-01T20:16:22.937Z,16.27
2017-07-01T20:18:49.733Z,15.07
2017-07-01T20:21:16.983Z,21.50
2017-07-01T20:23:44.493Z,11.63
2017-07-01T20:26:11.744Z,10.40
2017-07-01T20:28:38.558Z,11.20
2017-07-01T20:31:05.586Z,10.90
2017-07-01T20:33:32.404Z,9.83
2017-07-01T20:35:59.801Z,12.20
2017-07-01T20:38:26.585Z,15.83
2017-07-01T20:40:54.089Z,9.67
2017-07-01T20:43:21.166Z,13.57
2017-07-01T20:45:48.209Z,14.43
2017-07-01T20:48:14.992Z,15.83
2017-07-01T20:50:41.800Z,9.73
2017-07-01T20:53:08.965Z,16.70
2017-07-01T20:55:36.731Z,12.00
2017-07-01T20:58:03.782Z,12.20
2017-07-01T21:00:31.042Z,11.73
2017-07-01T21:02:57.806Z,9.70
2017-07-01T21:05:24.871Z,15.03
2017-07-01T21:07:52.082Z,17.63
2017-07-01T21:10:20.051Z,12.07
2017-07-01T21:12:47.821Z,8.57
2017-07-01T21:15:15.369Z,15.97
2017-07-01T21:17:42.165Z,13.27
2017-07-01T21:20:09.103Z,23.40
2017-07-01T21:22:36.154Z,22.57
2017-07-01T21:25:03.211Z,19.53
2017-07-01T21:27:30.019Z,15.53
2017-07-01T21:29:56.837Z,26.20
2017-07-01T21:32:23.621Z,13.23
2017-07-01T21:34:51.238Z,17.00
2017-07-01T21:37:18.612Z,12.80
2017-07-01T21:39:45.832Z,21.87
2017-07-01T21:42:12.886Z,19.53
2017-07-01T21:44:39.654Z,13.63
2017-07-01T21:47:06.509Z,28.13
2017-07-01T21:49:33.927Z,8.13
2017-07-01T21:52:01.103Z,16.73
2017-07-01T21:54:27.984Z,21.03
2017-07-01T21:56:55.153Z,25.33
2017-07-01T21:59:22.097Z,26.07
2017-07-01T22:01:49.588Z,16.80
2017-07-01T22:04:16.670Z,6.90
2017-07-01T22:06:43.726Z,14.27
2017-07-01T22:09:10.534Z,19.57
2017-07-01T22:11:37.356Z,19.93
2017-07-01T22:14:04.416Z,20.23
2017-07-01T22:16:31.460Z,8.80
2017-07-01T22:18:58.681Z,6.77
